sensor_id;sensor_type;location;lat;lon;timestamp;pressure;altitude;pressure_sealevel;temperature;humidity
8707;BME280;75512;49.302;9.306;2024-02-23T00:00:13;97674.97;;;4.71;58.31
8707;BME280;75512;49.302;9.306;2024-02-23T00:02:44;97682.00;;;4.03;60.49
8707;BME280;75512;49.302;9.306;2024-02-23T00:05:11;97709.03;;;4.08;60.33
8707;BME280;75512;49.302;9.306;2024-02-23T00:07:39;97720.44;;;3.98;60.84
8707;BME280;75512;49.302;9.306;2024-02-23T00:10:07;97699.84;;;3.88;61.24
8707;BME280;75512;49.302;9.306;2024-02-23T00:12:35;97721.28;;;3.55;61.84
8707;BME280;75512;49.302;9.306;2024-02-23T00:15:03;97732.63;;;3.88;60.90
8707;BME280;75512;49.302;9.306;2024-02-23T00:17:32;97717.09;;;3.79;60.95
8707;BME280;75512;49.302;9.306;2024-02-23T00:20:00;97736.59;;;3.74;61.41
8707;BME280;75512;49.302;9.306;2024-02-23T00:22:28;97731.81;;;3.61;61.95
8707;BME280;75512;49.302;9.306;2024-02-23T00:24:56;97735.97;;;3.54;62.64
8707;BME280;75512;49.302;9.306;2024-02-23T00:27:23;97753.16;;;3.63;62.78
8707;BME280;75512;49.302;9.306;2024-02-23T00:29:51;97724.66;;;3.37;63.83
8707;BME280;75512;49.302;9.306;2024-02-23T00:32:18;97737.59;;;3.37;63.85
8707;BME280;75512;49.302;9.306;2024-02-23T00:34:47;97724.16;;;3.34;64.61
8707;BME280;75512;49.302;9.306;2024-02-23T00:37:15;97741.53;;;3.32;64.82
8707;BME280;75512;49.302;9.306;2024-02-23T00:39:43;97736.38;;;3.14;64.90
8707;BME280;75512;49.302;9.306;2024-02-23T00:42:10;97740.50;;;3.07;65.33
8707;BME280;75512;49.302;9.306;2024-02-23T00:44:38;97763.91;;;3.23;64.08
8707;BME280;75512;49.302;9.306;2024-02-23T00:47:06;97763.91;;;3.05;65.28
8707;BME280;75512;49.302;9.306;2024-02-23T00:49:34;97786.81;;;2.91;65.47
8707;BME280;75512;49.302;9.306;2024-02-23T00:52:03;97793.84;;;2.98;64.99
8707;BME280;75512;49.302;9.306;2024-02-23T00:54:31;97773.72;;;3.02;64.34
8707;BME280;75512;49.302;9.306;2024-02-23T00:56:58;97780.94;;;2.98;64.29
8707;BME280;75512;49.302;9.306;2024-02-23T00:59:26;97777.19;;;3.10;63.77
8707;BME280;75512;49.302;9.306;2024-02-23T01:01:54;97783.53;;;2.98;63.87
8707;BME280;75512;49.302;9.306;2024-02-23T01:04:21;97763.97;;;3.13;63.81
8707;BME280;75512;49.302;9.306;2024-02-23T01:06:49;97770.84;;;3.05;63.52
8707;BME280;75512;49.302;9.306;2024-02-23T01:09:18;97769.66;;;3.17;63.26
8707;BME280;75512;49.302;9.306;2024-02-23T01:11:47;97780.84;;;3.08;62.74
8707;BME280;75512;49.302;9.306;2024-02-23T01:14:15;97785.44;;;3.14;62.74
8707;BME280;75512;49.302;9.306;2024-02-23T01:16:42;97786.63;;;3.20;62.30
8707;BME280;75512;49.302;9.306;2024-02-23T01:19:10;97809.03;;;3.29;62.12
8707;BME280;75512;49.302;9.306;2024-02-23T01:21:38;97798.50;;;3.12;62.36
8707;BME280;75512;49.302;9.306;2024-02-23T01:24:06;97800.25;;;2.94;61.90
8707;BME280;75512;49.302;9.306;2024-02-23T01:26:35;97807.00;;;3.05;62.15
8707;BME280;75512;49.302;9.306;2024-02-23T01:29:07;97808.00;;;2.94;62.26
8707;BME280;75512;49.302;9.306;2024-02-23T01:31:34;97809.47;;;2.97;62.36
8707;BME280;75512;49.302;9.306;2024-02-23T01:34:02;97800.72;;;3.07;61.72
8707;BME280;75512;49.302;9.306;2024-02-23T01:36:30;97803.59;;;3.04;61.65
8707;BME280;75512;49.302;9.306;2024-02-23T01:38:57;97797.50;;;3.23;61.54
8707;BME280;75512;49.302;9.306;2024-02-23T01:41:25;97811.66;;;3.19;61.38
8707;BME280;75512;49.302;9.306;2024-02-23T01:43:54;97830.22;;;3.32;61.39
8707;BME280;75512;49.302;9.306;2024-02-23T01:46:22;97823.38;;;3.13;61.64
8707;BME280;75512;49.302;9.306;2024-02-23T01:48:50;97822.41;;;3.14;61.42
8707;BME280;75512;49.302;9.306;2024-02-23T01:51:18;97837.66;;;3.08;61.05
8707;BME280;75512;49.302;9.306;2024-02-23T01:53:46;97838.25;;;2.74;62.48
8707;BME280;75512;49.302;9.306;2024-02-23T01:56:14;97844.91;;;2.77;62.37
8707;BME280;75512;49.302;9.306;2024-02-23T01:58:46;97827.66;;;2.77;62.29
8707;BME280;75512;49.302;9.306;2024-02-23T02:01:15;97834.19;;;2.72;62.44
8707;BME280;75512;49.302;9.306;2024-02-23T02:03:43;97846.06;;;2.92;61.63
8707;BME280;75512;49.302;9.306;2024-02-23T02:06:11;97852.59;;;2.87;62.34
8707;BME280;75512;49.302;9.306;2024-02-23T02:08:39;97858.66;;;2.68;62.28
8707;BME280;75512;49.302;9.306;2024-02-23T02:11:07;97846.03;;;2.65;61.91
8707;BME280;75512;49.302;9.306;2024-02-23T02:13:35;97864.88;;;2.75;61.92
8707;BME280;75512;49.302;9.306;2024-02-23T02:16:03;97842.28;;;2.87;61.44
8707;BME280;75512;49.302;9.306;2024-02-23T02:18:32;97848.88;;;2.62;60.57
8707;BME280;75512;49.302;9.306;2024-02-23T02:21:00;97858.78;;;2.66;61.41
8707;BME280;75512;49.302;9.306;2024-02-23T02:23:27;97865.50;;;2.49;61.25
8707;BME280;75512;49.302;9.306;2024-02-23T02:25:56;97868.91;;;2.40;61.56
8707;BME280;75512;49.302;9.306;2024-02-23T02:28:24;97864.72;;;2.30;61.97
8707;BME280;75512;49.302;9.306;2024-02-23T02:30:52;97873.63;;;2.55;61.78
8707;BME280;75512;49.302;9.306;2024-02-23T02:33:20;97872.28;;;2.51;61.15
8707;BME280;75512;49.302;9.306;2024-02-23T02:35:50;97875.84;;;2.49;61.62
8707;BME280;75512;49.302;9.306;2024-02-23T02:38:17;97883.25;;;2.62;61.00
8707;BME280;75512;49.302;9.306;2024-02-23T02:40:45;97884.25;;;2.42;61.92
8707;BME280;75512;49.302;9.306;2024-02-23T02:43:12;97882.97;;;2.75;59.91
8707;BME280;75512;49.302;9.306;2024-02-23T02:45:40;97883.78;;;2.75;60.70
8707;BME280;75512;49.302;9.306;2024-02-23T02:48:08;97885.19;;;2.88;60.26
8707;BME280;75512;49.302;9.306;2024-02-23T02:50:36;97896.28;;;2.61;60.50
8707;BME280;75512;49.302;9.306;2024-02-23T02:53:05;97899.19;;;2.85;59.49
8707;BME280;75512;49.302;9.306;2024-02-23T02:55:32;97890.41;;;2.78;59.90
8707;BME280;75512;49.302;9.306;2024-02-23T02:58:00;97889.50;;;2.60;61.18
8707;BME280;75512;49.302;9.306;2024-02-23T03:00:28;97900.91;;;2.57;60.64
8707;BME280;75512;49.302;9.306;2024-02-23T03:02:57;97889.53;;;2.50;60.57
8707;BME280;75512;49.302;9.306;2024-02-23T03:05:25;97896.56;;;2.58;60.57
8707;BME280;75512;49.302;9.306;2024-02-23T03:07:52;97897.25;;;2.60;60.14
8707;BME280;75512;49.302;9.306;2024-02-23T03:10:21;97893.31;;;2.56;60.13
8707;BME280;75512;49.302;9.306;2024-02-23T03:12:50;97910.16;;;2.60;60.03
8707;BME280;75512;49.302;9.306;2024-02-23T03:15:17;97919.13;;;2.56;60.29
8707;BME280;75512;49.302;9.306;2024-02-23T03:17:45;97919.66;;;2.59;59.17
8707;BME280;75512;49.302;9.306;2024-02-23T03:20:13;97906.94;;;2.48;60.59
8707;BME280;75512;49.302;9.306;2024-02-23T03:22:40;97903.94;;;2.53;59.65
8707;BME280;75512;49.302;9.306;2024-02-23T03:25:08;97911.63;;;2.72;59.58
8707;BME280;75512;49.302;9.306;2024-02-23T03:27:37;97904.03;;;2.61;59.45
8707;BME280;75512;49.302;9.306;2024-02-23T03:30:06;97899.59;;;2.53;59.99
8707;BME280;75512;49.302;9.306;2024-02-23T03:32:35;97905.81;;;2.60;59.44
8707;BME280;75512;49.302;9.306;2024-02-23T03:35:05;97911.13;;;2.39;59.95
8707;BME280;75512;49.302;9.306;2024-02-23T03:37:34;97898.78;;;2.33;60.02
8707;BME280;75512;49.302;9.306;2024-02-23T03:40:02;97886.72;;;2.34;60.30
8707;BME280;75512;49.302;9.306;2024-02-23T03:42:31;97905.03;;;2.50;59.77
8707;BME280;75512;49.302;9.306;2024-02-23T03:45:00;97904.84;;;2.71;59.22
8707;BME280;75512;49.302;9.306;2024-02-23T03:47:27;97896.03;;;3.01;58.35
8707;BME280;75512;49.302;9.306;2024-02-23T03:49:55;97903.22;;;2.60;58.88
8707;BME280;75512;49.302;9.306;2024-02-23T03:52:23;97908.66;;;2.57;58.99
8707;BME280;75512;49.302;9.306;2024-02-23T03:54:51;97910.00;;;2.61;58.98
8707;BME280;75512;49.302;9.306;2024-02-23T03:57:20;97895.53;;;2.31;59.75
8707;BME280;75512;49.302;9.306;2024-02-23T03:59:51;97905.97;;;2.39;59.89
8707;BME280;75512;49.302;9.306;2024-02-23T04:02:21;97886.09;;;2.69;58.64
8707;BME280;75512;49.302;9.306;2024-02-23T04:04:49;97910.69;;;2.63;59.19
8707;BME280;75512;49.302;9.306;2024-02-23T04:07:17;97923.31;;;2.57;59.37
8707;BME280;75512;49.302;9.306;2024-02-23T04:09:45;97919.44;;;2.24;60.11
8707;BME280;75512;49.302;9.306;2024-02-23T04:12:18;97934.09;;;2.42;59.84
8707;BME280;75512;49.302;9.306;2024-02-23T04:14:47;97929.19;;;2.49;60.07
8707;BME280;75512;49.302;9.306;2024-02-23T04:17:15;97924.72;;;2.41;60.48
8707;BME280;75512;49.302;9.306;2024-02-23T04:19:44;97947.38;;;2.28;60.17
8707;BME280;75512;49.302;9.306;2024-02-23T04:22:12;97945.19;;;2.62;59.95
8707;BME280;75512;49.302;9.306;2024-02-23T04:24:41;97928.97;;;2.23;60.37
8707;BME280;75512;49.302;9.306;2024-02-23T04:27:08;97925.53;;;2.42;59.83
8707;BME280;75512;49.302;9.306;2024-02-23T04:29:36;97924.59;;;2.14;61.14
8707;BME280;75512;49.302;9.306;2024-02-23T04:32:04;97915.22;;;2.42;59.96
8707;BME280;75512;49.302;9.306;2024-02-23T04:34:32;97917.66;;;2.34;59.80
8707;BME280;75512;49.302;9.306;2024-02-23T04:37:01;97929.06;;;2.97;58.45
8707;BME280;75512;49.302;9.306;2024-02-23T04:39:29;97933.09;;;2.72;57.05
8707;BME280;75512;49.302;9.306;2024-02-23T04:41:56;97934.72;;;2.54;57.46
8707;BME280;75512;49.302;9.306;2024-02-23T04:44:24;97936.53;;;2.44;58.20
8707;BME280;75512;49.302;9.306;2024-02-23T04:46:52;97936.44;;;2.26;59.00
8707;BME280;75512;49.302;9.306;2024-02-23T04:49:19;97925.94;;;2.47;58.05
8707;BME280;75512;49.302;9.306;2024-02-23T04:51:47;97927.97;;;2.53;57.65
8707;BME280;75512;49.302;9.306;2024-02-23T04:54:16;97929.00;;;2.79;56.68
8707;BME280;75512;49.302;9.306;2024-02-23T04:56:44;97932.41;;;2.61;56.98
8707;BME280;75512;49.302;9.306;2024-02-23T04:59:12;97923.91;;;2.51;57.36
8707;BME280;75512;49.302;9.306;2024-02-23T05:01:39;97935.47;;;2.27;56.64
8707;BME280;75512;49.302;9.306;2024-02-23T05:04:07;97942.63;;;2.33;57.00
8707;BME280;75512;49.302;9.306;2024-02-23T05:06:35;97941.97;;;2.22;56.50
8707;BME280;75512;49.302;9.306;2024-02-23T05:09:03;97928.41;;;2.20;57.26
8707;BME280;75512;49.302;9.306;2024-02-23T05:11:33;97939.13;;;2.44;56.05
8707;BME280;75512;49.302;9.306;2024-02-23T05:14:01;97929.34;;;2.09;56.76
8707;BME280;75512;49.302;9.306;2024-02-23T05:16:29;97935.59;;;2.16;57.70
8707;BME280;75512;49.302;9.306;2024-02-23T05:18:56;97929.06;;;2.31;57.57
8707;BME280;75512;49.302;9.306;2024-02-23T05:21:27;97928.69;;;2.26;56.64
8707;BME280;75512;49.302;9.306;2024-02-23T05:23:54;97939.78;;;2.46;56.20
8707;BME280;75512;49.302;9.306;2024-02-23T05:26:22;97933.22;;;2.71;55.95
8707;BME280;75512;49.302;9.306;2024-02-23T05:28:51;97934.56;;;2.75;55.94
8707;BME280;75512;49.302;9.306;2024-02-23T05:31:22;97938.44;;;2.52;56.34
8707;BME280;75512;49.302;9.306;2024-02-23T05:34:07;97932.19;;;2.35;56.65
8707;BME280;75512;49.302;9.306;2024-02-23T05:36:35;97935.31;;;1.90;57.13
8707;BME280;75512;49.302;9.306;2024-02-23T05:39:02;97933.16;;;1.95;58.13
8707;BME280;75512;49.302;9.306;2024-02-23T05:41:30;97925.97;;;1.99;57.29
8707;BME280;75512;49.302;9.306;2024-02-23T05:43:59;97937.22;;;1.98;57.97
8707;BME280;75512;49.302;9.306;2024-02-23T05:46:27;97945.91;;;2.16;56.36
8707;BME280;75512;49.302;9.306;2024-02-23T05:48:54;97936.81;;;2.02;56.76
8707;BME280;75512;49.302;9.306;2024-02-23T05:51:22;97943.88;;;2.48;56.27
8707;BME280;75512;49.302;9.306;2024-02-23T05:53:50;97956.63;;;2.02;56.04
8707;BME280;75512;49.302;9.306;2024-02-23T05:56:17;97951.19;;;1.95;56.72
8707;BME280;75512;49.302;9.306;2024-02-23T05:58:45;97961.94;;;2.00;56.98
8707;BME280;75512;49.302;9.306;2024-02-23T06:01:14;97961.53;;;2.14;56.27
8707;BME280;75512;49.302;9.306;2024-02-23T06:03:41;97961.94;;;2.39;56.27
8707;BME280;75512;49.302;9.306;2024-02-23T06:06:09;97955.00;;;2.49;55.79
8707;BME280;75512;49.302;9.306;2024-02-23T06:08:37;97944.69;;;3.05;54.00
8707;BME280;75512;49.302;9.306;2024-02-23T06:11:05;97955.09;;;2.76;54.75
8707;BME280;75512;49.302;9.306;2024-02-23T06:13:33;97952.59;;;2.84;54.98
8707;BME280;75512;49.302;9.306;2024-02-23T06:16:01;97964.91;;;3.10;54.85
8707;BME280;75512;49.302;9.306;2024-02-23T06:18:30;97966.59;;;2.92;54.66
8707;BME280;75512;49.302;9.306;2024-02-23T06:20:58;97953.66;;;3.01;55.19
8707;BME280;75512;49.302;9.306;2024-02-23T06:23:26;97962.47;;;3.45;53.86
8707;BME280;75512;49.302;9.306;2024-02-23T06:25:53;97963.09;;;3.20;54.61
8707;BME280;75512;49.302;9.306;2024-02-23T06:28:21;97965.50;;;3.41;54.11
8707;BME280;75512;49.302;9.306;2024-02-23T06:30:49;97972.09;;;3.16;54.70
8707;BME280;75512;49.302;9.306;2024-02-23T06:33:16;97968.84;;;3.78;53.44
8707;BME280;75512;49.302;9.306;2024-02-23T06:35:45;97976.75;;;4.12;52.23
8707;BME280;75512;49.302;9.306;2024-02-23T06:38:13;97989.63;;;4.04;52.09
8707;BME280;75512;49.302;9.306;2024-02-23T06:40:41;97996.19;;;3.99;52.68
8707;BME280;75512;49.302;9.306;2024-02-23T06:43:17;97997.88;;;3.90;52.62
8707;BME280;75512;49.302;9.306;2024-02-23T06:45:49;97991.47;;;3.94;52.97
8707;BME280;75512;49.302;9.306;2024-02-23T06:48:17;97999.31;;;4.02;52.26
8707;BME280;75512;49.302;9.306;2024-02-23T06:50:46;97995.34;;;4.08;51.72
8707;BME280;75512;49.302;9.306;2024-02-23T06:53:14;97999.25;;;4.47;51.31
8707;BME280;75512;49.302;9.306;2024-02-23T06:55:42;98009.47;;;4.31;51.04
8707;BME280;75512;49.302;9.306;2024-02-23T06:58:09;98008.34;;;3.71;53.01
8707;BME280;75512;49.302;9.306;2024-02-23T07:00:37;97994.09;;;3.84;52.79
8707;BME280;75512;49.302;9.306;2024-02-23T07:03:05;98004.28;;;3.86;52.10
8707;BME280;75512;49.302;9.306;2024-02-23T07:05:32;98005.59;;;4.17;51.96
8707;BME280;75512;49.302;9.306;2024-02-23T07:08:04;98013.47;;;4.69;50.65
8707;BME280;75512;49.302;9.306;2024-02-23T07:10:32;98013.66;;;4.32;50.44
8707;BME280;75512;49.302;9.306;2024-02-23T07:12:59;98002.09;;;4.62;49.75
8707;BME280;75512;49.302;9.306;2024-02-23T07:15:29;98009.03;;;4.79;49.76
8707;BME280;75512;49.302;9.306;2024-02-23T07:17:59;98006.78;;;4.23;50.69
8707;BME280;75512;49.302;9.306;2024-02-23T07:20:26;98004.19;;;4.23;50.61
8707;BME280;75512;49.302;9.306;2024-02-23T07:22:54;98007.44;;;4.07;51.06
8707;BME280;75512;49.302;9.306;2024-02-23T07:25:23;98017.81;;;3.80;51.16
8707;BME280;75512;49.302;9.306;2024-02-23T07:27:51;98014.06;;;3.92;50.97
8707;BME280;75512;49.302;9.306;2024-02-23T07:30:19;98009.25;;;3.79;50.78
8707;BME280;75512;49.302;9.306;2024-02-23T07:32:47;98023.03;;;3.70;51.43
8707;BME280;75512;49.302;9.306;2024-02-23T07:35:19;98011.44;;;4.02;50.72
8707;BME280;75512;49.302;9.306;2024-02-23T07:37:47;98003.31;;;4.50;49.26
8707;BME280;75512;49.302;9.306;2024-02-23T07:40:15;98012.03;;;4.49;49.30
8707;BME280;75512;49.302;9.306;2024-02-23T07:42:48;98015.28;;;3.70;50.34
8707;BME280;75512;49.302;9.306;2024-02-23T07:45:15;98021.97;;;3.63;50.14
8707;BME280;75512;49.302;9.306;2024-02-23T07:47:43;98025.38;;;3.91;49.52
8707;BME280;75512;49.302;9.306;2024-02-23T07:50:11;98023.34;;;4.30;48.89
8707;BME280;75512;49.302;9.306;2024-02-23T07:52:39;98023.56;;;4.37;48.92
8707;BME280;75512;49.302;9.306;2024-02-23T07:55:08;98022.53;;;3.84;49.34
8707;BME280;75512;49.302;9.306;2024-02-23T07:57:35;98016.78;;;3.36;50.54
8707;BME280;75512;49.302;9.306;2024-02-23T08:00:07;98015.28;;;3.33;50.56
8707;BME280;75512;49.302;9.306;2024-02-23T08:02:39;98014.78;;;3.84;50.04
8707;BME280;75512;49.302;9.306;2024-02-23T08:05:07;98012.97;;;3.95;49.41
8707;BME280;75512;49.302;9.306;2024-02-23T08:07:36;98015.44;;;3.87;49.95
8707;BME280;75512;49.302;9.306;2024-02-23T08:10:04;98008.19;;;3.72;49.97
8707;BME280;75512;49.302;9.306;2024-02-23T08:12:33;98017.56;;;4.01;49.46
8707;BME280;75512;49.302;9.306;2024-02-23T08:15:08;98010.91;;;4.16;49.01
8707;BME280;75512;49.302;9.306;2024-02-23T08:17:36;98001.34;;;3.81;49.18
8707;BME280;75512;49.302;9.306;2024-02-23T08:20:05;97997.53;;;4.21;48.75
8707;BME280;75512;49.302;9.306;2024-02-23T08:22:33;98005.19;;;3.77;49.56
8707;BME280;75512;49.302;9.306;2024-02-23T08:25:00;98004.66;;;3.36;50.31
8707;BME280;75512;49.302;9.306;2024-02-23T08:27:28;98014.06;;;3.92;50.20
8707;BME280;75512;49.302;9.306;2024-02-23T08:29:56;98013.06;;;4.21;49.84
8707;BME280;75512;49.302;9.306;2024-02-23T08:32:25;98016.25;;;4.32;48.76
8707;BME280;75512;49.302;9.306;2024-02-23T08:34:52;98025.91;;;4.66;48.79
8707;BME280;75512;49.302;9.306;2024-02-23T08:37:26;98020.81;;;4.38;49.29
8707;BME280;75512;49.302;9.306;2024-02-23T08:39:53;98028.59;;;4.21;49.78
8707;BME280;75512;49.302;9.306;2024-02-23T08:42:21;98013.97;;;4.29;49.68
8707;BME280;75512;49.302;9.306;2024-02-23T08:44:48;98020.00;;;4.02;49.38
8707;BME280;75512;49.302;9.306;2024-02-23T08:47:16;98015.59;;;4.30;49.18
8707;BME280;75512;49.302;9.306;2024-02-23T08:49:45;98008.66;;;3.85;49.70
8707;BME280;75512;49.302;9.306;2024-02-23T08:52:13;98010.47;;;3.48;51.40
8707;BME280;75512;49.302;9.306;2024-02-23T08:54:41;97996.59;;;3.02;52.44
8707;BME280;75512;49.302;9.306;2024-02-23T08:57:08;98005.31;;;3.01;52.89
8707;BME280;75512;49.302;9.306;2024-02-23T08:59:36;97997.28;;;3.04;52.12
8707;BME280;75512;49.302;9.306;2024-02-23T09:02:04;97994.25;;;3.18;51.97
8707;BME280;75512;49.302;9.306;2024-02-23T09:04:31;97995.22;;;3.08;52.34
8707;BME280;75512;49.302;9.306;2024-02-23T09:07:00;97992.88;;;3.24;51.94
8707;BME280;75512;49.302;9.306;2024-02-23T09:09:28;97996.63;;;2.93;52.42
8707;BME280;75512;49.302;9.306;2024-02-23T09:11:56;97998.50;;;3.47;51.22
8707;BME280;75512;49.302;9.306;2024-02-23T09:14:24;98005.06;;;3.96;50.26
8707;BME280;75512;49.302;9.306;2024-02-23T09:16:52;98013.34;;;3.72;50.73
8707;BME280;75512;49.302;9.306;2024-02-23T09:19:20;98011.00;;;4.42;49.71
8707;BME280;75512;49.302;9.306;2024-02-23T09:21:48;98016.09;;;4.16;49.83
8707;BME280;75512;49.302;9.306;2024-02-23T09:24:17;98018.16;;;4.66;48.69
8707;BME280;75512;49.302;9.306;2024-02-23T09:26:46;98024.06;;;4.23;49.63
8707;BME280;75512;49.302;9.306;2024-02-23T09:29:13;98023.94;;;4.06;50.65
8707;BME280;75512;49.302;9.306;2024-02-23T09:31:41;98019.19;;;4.19;49.51
8707;BME280;75512;49.302;9.306;2024-02-23T09:34:09;98024.22;;;4.21;49.50
8707;BME280;75512;49.302;9.306;2024-02-23T09:36:36;98025.38;;;3.91;49.97
8707;BME280;75512;49.302;9.306;2024-02-23T09:39:04;98025.94;;;4.48;49.71
8707;BME280;75512;49.302;9.306;2024-02-23T09:41:33;98024.22;;;4.74;49.63
8707;BME280;75512;49.302;9.306;2024-02-23T09:44:01;98023.94;;;5.03;48.86
8707;BME280;75512;49.302;9.306;2024-02-23T09:46:30;98025.91;;;4.83;48.27
8707;BME280;75512;49.302;9.306;2024-02-23T09:48:58;98020.38;;;4.78;48.37
8707;BME280;75512;49.302;9.306;2024-02-23T09:51:26;98010.31;;;5.53;46.97
8707;BME280;75512;49.302;9.306;2024-02-23T09:53:54;98034.00;;;5.58;46.10
8707;BME280;75512;49.302;9.306;2024-02-23T09:56:26;98028.50;;;5.61;47.23
8707;BME280;75512;49.302;9.306;2024-02-23T09:58:59;98032.06;;;6.02;45.54
8707;BME280;75512;49.302;9.306;2024-02-23T10:01:28;98029.16;;;6.05;45.77
8707;BME280;75512;49.302;9.306;2024-02-23T10:03:57;98031.69;;;5.89;46.22
8707;BME280;75512;49.302;9.306;2024-02-23T10:06:25;98043.47;;;5.41;47.44
8707;BME280;75512;49.302;9.306;2024-02-23T10:08:54;98034.69;;;4.91;47.84
8707;BME280;75512;49.302;9.306;2024-02-23T10:11:22;98029.34;;;4.92;47.33
8707;BME280;75512;49.302;9.306;2024-02-23T10:13:50;98033.03;;;5.07;47.46
8707;BME280;75512;49.302;9.306;2024-02-23T10:16:20;98038.34;;;4.44;49.58
8707;BME280;75512;49.302;9.306;2024-02-23T10:18:48;98038.66;;;4.41;50.44
8707;BME280;75512;49.302;9.306;2024-02-23T10:21:16;98038.72;;;4.32;50.00
8707;BME280;75512;49.302;9.306;2024-02-23T10:23:44;98055.66;;;4.26;49.44
8707;BME280;75512;49.302;9.306;2024-02-23T10:26:13;98040.94;;;4.27;49.21
8707;BME280;75512;49.302;9.306;2024-02-23T10:28:45;98039.59;;;4.23;49.34
8707;BME280;75512;49.302;9.306;2024-02-23T10:31:13;98044.72;;;4.32;49.17
8707;BME280;75512;49.302;9.306;2024-02-23T10:33:44;98041.53;;;4.38;49.54
8707;BME280;75512;49.302;9.306;2024-02-23T10:36:15;98045.75;;;4.75;48.62
8707;BME280;75512;49.302;9.306;2024-02-23T10:38:44;98062.03;;;5.29;48.13
8707;BME280;75512;49.302;9.306;2024-02-23T10:41:13;98062.09;;;4.40;48.41
8707;BME280;75512;49.302;9.306;2024-02-23T10:43:43;98056.75;;;4.06;49.58
8707;BME280;75512;49.302;9.306;2024-02-23T10:46:12;98057.88;;;4.39;49.69
8707;BME280;75512;49.302;9.306;2024-02-23T10:48:41;98059.47;;;4.04;49.68
8707;BME280;75512;49.302;9.306;2024-02-23T10:51:10;98057.88;;;4.39;49.18
8707;BME280;75512;49.302;9.306;2024-02-23T10:53:45;98063.75;;;4.59;48.75
8707;BME280;75512;49.302;9.306;2024-02-23T10:56:13;98062.16;;;4.66;48.86
8707;BME280;75512;49.302;9.306;2024-02-23T10:58:40;98058.69;;;4.22;50.30
8707;BME280;75512;49.302;9.306;2024-02-23T11:01:08;98053.59;;;4.47;50.07
8707;BME280;75512;49.302;9.306;2024-02-23T11:03:38;98045.06;;;4.73;49.44
8707;BME280;75512;49.302;9.306;2024-02-23T11:06:07;98039.59;;;4.76;50.01
8707;BME280;75512;49.302;9.306;2024-02-23T11:08:37;98040.34;;;4.68;50.65
8707;BME280;75512;49.302;9.306;2024-02-23T11:11:08;98054.50;;;5.00;49.79
8707;BME280;75512;49.302;9.306;2024-02-23T11:13:36;98047.19;;;4.95;49.67
8707;BME280;75512;49.302;9.306;2024-02-23T11:16:04;98043.00;;;4.76;49.54
8707;BME280;75512;49.302;9.306;2024-02-23T11:18:35;98036.41;;;4.64;50.15
8707;BME280;75512;49.302;9.306;2024-02-23T11:21:04;98042.41;;;4.65;49.95
8707;BME280;75512;49.302;9.306;2024-02-23T11:23:41;98045.47;;;5.04;48.88
8707;BME280;75512;49.302;9.306;2024-02-23T11:26:10;98043.59;;;4.70;49.46
8707;BME280;75512;49.302;9.306;2024-02-23T11:28:42;98038.66;;;5.03;48.65
8707;BME280;75512;49.302;9.306;2024-02-23T11:31:12;98046.88;;;5.42;48.15
8707;BME280;75512;49.302;9.306;2024-02-23T11:33:40;98038.38;;;5.58;47.29
8707;BME280;75512;49.302;9.306;2024-02-23T11:36:08;98041.03;;;4.96;48.07
8707;BME280;75512;49.302;9.306;2024-02-23T11:38:38;98038.13;;;5.43;47.69
8707;BME280;75512;49.302;9.306;2024-02-23T11:41:08;98029.06;;;5.47;47.16
8707;BME280;75512;49.302;9.306;2024-02-23T11:43:37;98029.09;;;5.21;47.47
8707;BME280;75512;49.302;9.306;2024-02-23T11:46:07;98033.06;;;5.15;47.81
8707;BME280;75512;49.302;9.306;2024-02-23T11:48:34;98032.84;;;5.27;47.60
8707;BME280;75512;49.302;9.306;2024-02-23T11:51:03;98023.47;;;4.64;48.71
8707;BME280;75512;49.302;9.306;2024-02-23T11:53:30;98026.59;;;5.11;47.89
8707;BME280;75512;49.302;9.306;2024-02-23T11:55:58;98019.41;;;5.05;47.20
8707;BME280;75512;49.302;9.306;2024-02-23T11:58:27;98013.81;;;5.18;47.49
8707;BME280;75512;49.302;9.306;2024-02-23T12:00:55;98008.44;;;5.71;45.48
8707;BME280;75512;49.302;9.306;2024-02-23T12:03:22;98014.25;;;6.23;45.80
8707;BME280;75512;49.302;9.306;2024-02-23T12:05:51;98006.50;;;6.32;44.06
8707;BME280;75512;49.302;9.306;2024-02-23T12:08:19;98003.88;;;6.23;44.71
8707;BME280;75512;49.302;9.306;2024-02-23T12:10:47;97997.63;;;5.84;45.34
8707;BME280;75512;49.302;9.306;2024-02-23T12:13:15;97995.94;;;6.17;44.87
8707;BME280;75512;49.302;9.306;2024-02-23T12:15:44;97984.69;;;6.00;45.22
8707;BME280;75512;49.302;9.306;2024-02-23T12:18:11;97990.41;;;6.20;45.30
8707;BME280;75512;49.302;9.306;2024-02-23T12:20:39;97983.63;;;6.84;43.65
8707;BME280;75512;49.302;9.306;2024-02-23T12:23:07;97981.78;;;7.72;41.56
8707;BME280;75512;49.302;9.306;2024-02-23T12:25:36;97989.78;;;7.94;41.39
8707;BME280;75512;49.302;9.306;2024-02-23T12:28:08;97992.91;;;8.43;40.70
8707;BME280;75512;49.302;9.306;2024-02-23T12:30:35;97998.00;;;7.27;41.77
8707;BME280;75512;49.302;9.306;2024-02-23T12:33:06;97996.78;;;6.66;42.95
8707;BME280;75512;49.302;9.306;2024-02-23T12:35:35;97996.94;;;6.56;43.53
8707;BME280;75512;49.302;9.306;2024-02-23T12:38:03;98003.75;;;6.57;43.79
8707;BME280;75512;49.302;9.306;2024-02-23T12:40:31;97999.22;;;6.92;44.01
8707;BME280;75512;49.302;9.306;2024-02-23T12:42:58;97992.72;;;6.64;43.78
8707;BME280;75512;49.302;9.306;2024-02-23T12:45:25;97993.03;;;6.36;43.64
8707;BME280;75512;49.302;9.306;2024-02-23T12:47:53;97991.38;;;6.27;44.16
8707;BME280;75512;49.302;9.306;2024-02-23T12:50:22;97994.34;;;6.56;43.34
8707;BME280;75512;49.302;9.306;2024-02-23T12:52:50;97990.91;;;6.48;43.58
8707;BME280;75512;49.302;9.306;2024-02-23T12:55:18;97997.56;;;6.34;44.13
8707;BME280;75512;49.302;9.306;2024-02-23T12:57:46;98006.13;;;6.18;43.64
8707;BME280;75512;49.302;9.306;2024-02-23T13:00:14;97994.78;;;6.19;44.15
8707;BME280;75512;49.302;9.306;2024-02-23T13:02:42;97999.03;;;6.45;44.47
8707;BME280;75512;49.302;9.306;2024-02-23T13:05:10;97994.31;;;6.73;43.96
8707;BME280;75512;49.302;9.306;2024-02-23T13:07:39;97993.22;;;6.92;43.16
8707;BME280;75512;49.302;9.306;2024-02-23T13:10:08;97993.09;;;7.40;42.69
8707;BME280;75512;49.302;9.306;2024-02-23T13:12:36;97990.31;;;7.81;41.36
8707;BME280;75512;49.302;9.306;2024-02-23T13:15:05;97981.56;;;7.43;41.84
8707;BME280;75512;49.302;9.306;2024-02-23T13:17:33;98000.19;;;6.91;41.30
8707;BME280;75512;49.302;9.306;2024-02-23T13:20:00;97995.66;;;6.77;41.79
8707;BME280;75512;49.302;9.306;2024-02-23T13:22:38;97998.22;;;6.52;43.29
8707;BME280;75512;49.302;9.306;2024-02-23T13:25:06;98003.75;;;5.75;44.55
8707;BME280;75512;49.302;9.306;2024-02-23T13:27:34;98006.72;;;5.20;46.57